Meadow, South Dakota
Current Conditions -  °F | °C
As of 3:53 PM on Sunday 21 Dec 2014 (Local Time) from KHEI Reporting Station
Overcast Overcast  
Wind Chill: 39°   Ceiling: 5500
Heat Index: 39°   Visibility: 10mi
Dew Point: 30°   Wind: 0mph
Humidity: 70%   Direction: NA
Pressure: 29.38"   Gusts: NA
Location:  45.53°N, 102.22°W
Report Text: KHEI 212253Z AUTO 00000KT 10SM BKN055 OVC070 04/M01 A2938 RMK AO2 RAB09E33 SLP969 P0000 T00391011
Loading
Personal Weather Stations






























Interactive Weather Map New forecast layout! Learn more

10-Day Weather Forecast

Advertisements
Track Severe Weather on mobile